createdAt,value
2019-04-30T00:04:29.850Z,57.38
2019-04-30T00:09:39.510Z,57.32
2019-04-30T00:14:55.761Z,57.89
2019-04-30T00:20:11.238Z,58.18
2019-04-30T00:25:24.879Z,58.48
2019-04-30T00:30:34.697Z,58.69
2019-04-30T00:35:49.694Z,58.83
2019-04-30T00:41:06.845Z,58.87
2019-04-30T00:46:24.910Z,58.84
2019-04-30T00:51:35.524Z,58.71
2019-04-30T00:56:42.496Z,58.51
2019-04-30T01:02:27.853Z,58.88
2019-04-30T01:07:31.615Z,59.12
2019-04-30T01:12:50.213Z,59.02
2019-04-30T01:18:05.171Z,58.98
2019-04-30T01:23:23.324Z,59.06
2019-04-30T01:28:35.059Z,59.28
2019-04-30T01:33:48.903Z,59.54
2019-04-30T01:39:01.598Z,59.90
2019-04-30T01:44:13.919Z,59.96
2019-04-30T01:49:28.911Z,60.00
2019-04-30T01:54:39.129Z,60.02
2019-04-30T02:00:09.653Z,59.89
2019-04-30T02:05:18.927Z,59.91
2019-04-30T02:10:29.329Z,59.66
2019-04-30T02:15:41.188Z,59.22
2019-04-30T02:20:53.854Z,58.89
2019-04-30T02:26:04.937Z,58.56
2019-04-30T02:31:22.304Z,58.90
2019-04-30T02:36:53.149Z,59.01
2019-04-30T02:42:03.644Z,59.69
2019-04-30T02:47:23.552Z,59.43
2019-04-30T02:52:43.236Z,59.17
2019-04-30T02:57:55.887Z,59.49
2019-04-30T03:03:06.595Z,60.26
2019-04-30T03:08:15.915Z,59.70
2019-04-30T03:13:51.459Z,59.17
2019-04-30T03:19:11.495Z,59.91
2019-04-30T03:24:49.840Z,59.83
2019-04-30T03:30:02.026Z,60.00
2019-04-30T03:35:14.957Z,60.55
2019-04-30T03:40:52.691Z,60.51
2019-04-30T03:46:14.829Z,60.35
2019-04-30T03:51:29.846Z,60.79
2019-04-30T03:56:41.933Z,60.41
2019-04-30T04:02:12.247Z,60.21
2019-04-30T04:07:40.082Z,60.40
2019-04-30T04:13:04.099Z,60.46
2019-04-30T04:18:20.200Z,60.27
2019-04-30T04:23:34.850Z,59.57
2019-04-30T04:28:49.603Z,59.38
2019-04-30T04:34:03.211Z,58.75
2019-04-30T04:39:20.335Z,58.92
2019-04-30T04:44:35.339Z,58.69
2019-04-30T04:49:53.747Z,58.26
2019-04-30T04:55:05.269Z,58.40
2019-04-30T05:00:22.133Z,58.56
2019-04-30T05:05:36.750Z,57.96
2019-04-30T05:11:12.256Z,57.52
2019-04-30T05:16:29.666Z,57.35
2019-04-30T05:21:51.474Z,57.25
2019-04-30T05:27:04.225Z,57.55
2019-04-30T05:32:16.557Z,57.87
2019-04-30T05:38:09.296Z,57.86
2019-04-30T05:43:24.585Z,58.07
2019-04-30T05:48:39.593Z,57.37
2019-04-30T05:53:59.108Z,56.96
2019-04-30T05:59:29.114Z,56.50
2019-04-30T06:04:39.627Z,56.99
2019-04-30T06:09:59.717Z,57.08
2019-04-30T06:15:39.077Z,57.43
2019-04-30T06:20:51.504Z,57.28
2019-04-30T06:26:09.579Z,56.90
2019-04-30T06:31:26.083Z,57.05
2019-04-30T06:36:34.284Z,56.22
2019-04-30T06:41:45.972Z,55.15
2019-04-30T06:47:02.605Z,55.52
2019-04-30T06:52:23.030Z,55.74
2019-04-30T06:57:38.292Z,55.16
2019-04-30T07:02:49.273Z,55.91
2019-04-30T07:08:18.977Z,56.35
2019-04-30T07:13:32.223Z,56.18
2019-04-30T07:18:48.932Z,56.25
2019-04-30T07:24:02.877Z,55.98
2019-04-30T07:29:15.510Z,56.07
2019-04-30T07:34:31.696Z,56.15
2019-04-30T07:39:46.467Z,55.41
2019-04-30T07:45:00.709Z,55.97
2019-04-30T07:50:13.219Z,56.40
2019-04-30T07:55:29.349Z,56.83
2019-04-30T08:00:45.488Z,56.73
2019-04-30T08:05:59.919Z,56.58
2019-04-30T08:11:23.058Z,56.33
2019-04-30T08:16:32.225Z,56.95
2019-04-30T08:21:48.712Z,56.89
2019-04-30T08:27:06.554Z,56.24
2019-04-30T08:32:20.107Z,55.78
2019-04-30T08:37:32.300Z,55.91
2019-04-30T08:42:45.604Z,56.42
2019-04-30T08:48:00.900Z,56.46
2019-04-30T08:53:25.984Z,56.26
2019-04-30T08:58:45.024Z,56.66
2019-04-30T09:04:02.968Z,55.36
2019-04-30T09:09:20.915Z,55.29
2019-04-30T09:14:33.936Z,54.88
2019-04-30T09:19:50.003Z,55.24
2019-04-30T09:25:19.602Z,56.53
2019-04-30T09:30:36.015Z,56.98
2019-04-30T09:36:09.328Z,57.63
2019-04-30T09:41:29.343Z,56.74
2019-04-30T09:46:41.788Z,55.91
2019-04-30T09:51:59.447Z,56.48
2019-04-30T09:57:19.147Z,55.72
2019-04-30T10:02:40.215Z,56.48
2019-04-30T10:07:59.395Z,55.64
2019-04-30T10:13:13.759Z,54.86
2019-04-30T10:18:23.973Z,56.52
2019-04-30T10:23:39.096Z,57.02
2019-04-30T10:29:00.188Z,57.01
2019-04-30T10:34:15.838Z,56.98
2019-04-30T10:39:44.864Z,54.19
2019-04-30T10:45:00.325Z,53.46
2019-04-30T10:50:18.022Z,52.56
2019-04-30T10:55:35.698Z,51.52
2019-04-30T11:00:51.494Z,51.57
2019-04-30T11:06:08.689Z,51.32
2019-04-30T11:11:24.972Z,50.43
2019-04-30T11:16:41.989Z,51.21
2019-04-30T11:22:00.215Z,49.74
2019-04-30T11:27:20.279Z,50.88
2019-04-30T11:32:53.310Z,52.49
2019-04-30T11:38:07.254Z,51.74
2019-04-30T11:43:22.129Z,52.90
2019-04-30T11:48:46.243Z,52.49
2019-04-30T11:54:20.478Z,52.29
2019-04-30T11:59:39.626Z,51.76
2019-04-30T12:04:59.919Z,51.23
2019-04-30T12:17:04.483Z,52.69
2019-04-30T12:22:36.110Z,51.85
2019-04-30T12:27:49.641Z,51.76
2019-04-30T12:33:10.735Z,49.79
2019-04-30T12:38:26.185Z,48.97
2019-04-30T12:43:46.745Z,49.62
2019-04-30T12:49:18.867Z,49.07
2019-04-30T13:00:19.668Z,46.63
2019-04-30T13:05:40.191Z,46.30
2019-04-30T13:10:56.632Z,45.74
2019-04-30T13:16:13.125Z,47.15
2019-04-30T13:21:32.231Z,48.00
2019-04-30T13:27:24.340Z,47.09
2019-04-30T13:33:10.867Z,47.45
2019-04-30T13:38:47.529Z,48.48
2019-04-30T13:44:16.657Z,47.79
2019-04-30T13:50:04.073Z,47.20
2019-04-30T13:55:20.255Z,48.62
2019-04-30T14:00:37.118Z,48.44
2019-04-30T14:05:51.598Z,48.72
2019-04-30T14:11:24.033Z,48.11
2019-04-30T14:16:33.628Z,48.53
2019-04-30T14:21:49.423Z,47.31
2019-04-30T14:26:59.717Z,48.66
2019-04-30T14:32:11.157Z,48.08
2019-04-30T14:37:25.487Z,47.32
2019-04-30T14:43:30.032Z,47.75
2019-04-30T14:48:53.503Z,47.61
2019-04-30T14:54:19.996Z,47.84
2019-04-30T15:00:11.277Z,49.85
2019-04-30T15:05:38.546Z,50.10
2019-04-30T15:11:13.685Z,50.57
2019-04-30T15:16:30.277Z,51.06
2019-04-30T15:21:54.940Z,51.21
2019-04-30T15:27:09.314Z,50.97
2019-04-30T15:32:24.450Z,50.32
2019-04-30T15:37:38.586Z,49.22
2019-04-30T15:42:53.390Z,49.59
2019-04-30T15:48:08.569Z,49.53
2019-04-30T15:53:24.701Z,48.47
2019-04-30T15:58:45.468Z,47.91
2019-04-30T16:04:01.013Z,49.61
2019-04-30T16:09:18.268Z,49.28
2019-04-30T16:15:09.867Z,48.93
2019-04-30T16:20:44.986Z,48.93
2019-04-30T16:25:59.999Z,49.58
2019-04-30T16:31:33.331Z,51.00
2019-04-30T16:36:44.940Z,50.73
2019-04-30T16:42:09.165Z,50.85
2019-04-30T16:47:19.874Z,50.66
2019-04-30T16:52:44.953Z,50.61
2019-04-30T16:57:58.565Z,50.06
2019-04-30T17:03:32.671Z,50.41
2019-04-30T17:08:58.318Z,49.75
2019-04-30T17:14:11.177Z,50.01
2019-04-30T17:19:24.132Z,49.81
2019-04-30T17:24:54.841Z,50.77
2019-04-30T17:30:09.320Z,49.89
2019-04-30T17:35:22.791Z,50.63
2019-04-30T17:40:39.053Z,51.06
2019-04-30T17:45:58.521Z,51.65
2019-04-30T17:51:12.249Z,51.47
2019-04-30T17:56:22.958Z,51.87
2019-04-30T18:01:40.069Z,52.03
2019-04-30T18:06:54.465Z,52.05
2019-04-30T18:12:10.477Z,52.47
2019-04-30T18:17:27.757Z,52.82
2019-04-30T18:22:59.513Z,52.95
2019-04-30T18:28:09.277Z,53.31
2019-04-30T18:33:17.791Z,53.73
2019-04-30T18:38:31.232Z,53.88
2019-04-30T18:43:59.718Z,54.30
2019-04-30T18:49:11.076Z,54.99
2019-04-30T18:54:29.104Z,55.56
2019-04-30T18:59:42.194Z,55.99
2019-04-30T19:05:18.349Z,56.26
2019-04-30T19:16:52.924Z,56.50
2019-04-30T19:22:05.202Z,56.68
2019-04-30T19:27:29.681Z,56.61
2019-04-30T19:32:49.019Z,56.99
2019-04-30T19:38:09.207Z,57.08
2019-04-30T19:43:28.608Z,57.31
2019-04-30T19:48:38.219Z,57.43
2019-04-30T19:53:48.953Z,57.53
2019-04-30T19:59:05.643Z,57.70
2019-04-30T20:04:15.136Z,58.17
2019-04-30T20:09:31.429Z,58.48
2019-04-30T20:14:50.346Z,58.55
2019-04-30T20:20:03.495Z,58.53
2019-04-30T20:25:36.002Z,58.73
2019-04-30T20:30:48.985Z,58.90
2019-04-30T20:36:04.233Z,58.53
2019-04-30T20:46:49.117Z,58.57
2019-04-30T20:52:08.834Z,58.68
2019-04-30T20:57:23.747Z,58.84
2019-04-30T21:02:32.706Z,59.12
2019-04-30T21:07:46.023Z,59.28
2019-04-30T21:13:04.057Z,59.64
2019-04-30T21:18:19.606Z,59.56
2019-04-30T21:24:10.977Z,59.38
2019-04-30T21:29:21.212Z,59.51
2019-04-30T21:34:40.908Z,59.87
2019-04-30T21:39:51.168Z,60.34
2019-04-30T21:45:04.836Z,60.70
2019-04-30T21:50:19.703Z,61.11
2019-04-30T21:55:35.636Z,61.53
2019-04-30T22:01:12.066Z,61.40
2019-04-30T22:06:29.637Z,61.85
2019-04-30T22:11:44.204Z,62.00
2019-04-30T22:16:59.284Z,62.18
2019-04-30T22:22:12.044Z,62.51
2019-04-30T22:27:25.495Z,62.56
2019-04-30T22:32:59.476Z,62.45
2019-04-30T22:38:18.942Z,62.46
2019-04-30T22:43:31.196Z,62.09
2019-04-30T22:48:48.969Z,62.31
2019-04-30T22:54:01.823Z,62.53
2019-04-30T22:59:15.848Z,62.50
2019-04-30T23:04:40.822Z,62.48
2019-04-30T23:09:54.656Z,62.02
2019-04-30T23:15:05.817Z,62.00
2019-04-30T23:25:54.985Z,61.82
2019-04-30T23:31:06.142Z,62.06
2019-04-30T23:36:36.372Z,62.55
2019-04-30T23:41:52.688Z,62.39
2019-04-30T23:47:13.241Z,62.19
2019-04-30T23:52:26.726Z,61.79
2019-04-30T23:57:44.299Z,61.37
